sensor_id;sensor_type;location;lat;lon;timestamp;P1;durP1;ratioP1;P2;durP2;ratioP2
74900;SDS011;63461;51.416;6.758;2023-06-14T00:01:47;7.90;;;4.80;;
74900;SDS011;63461;51.416;6.758;2023-06-14T00:04:13;9.18;;;4.63;;
74900;SDS011;63461;51.416;6.758;2023-06-14T00:06:42;14.60;;;4.90;;
74900;SDS011;63461;51.416;6.758;2023-06-14T00:09:10;9.68;;;4.75;;
74900;SDS011;63461;51.416;6.758;2023-06-14T00:11:40;9.27;;;4.70;;
74900;SDS011;63461;51.416;6.758;2023-06-14T00:14:06;9.00;;;4.72;;
74900;SDS011;63461;51.416;6.758;2023-06-14T00:16:32;7.70;;;4.50;;
74900;SDS011;63461;51.416;6.758;2023-06-14T00:18:58;14.98;;;5.20;;
74900;SDS011;63461;51.416;6.758;2023-06-14T00:21:25;7.28;;;4.85;;
74900;SDS011;63461;51.416;6.758;2023-06-14T00:23:53;12.13;;;4.90;;
74900;SDS011;63461;51.416;6.758;2023-06-14T00:26:19;11.07;;;4.97;;
74900;SDS011;63461;51.416;6.758;2023-06-14T00:28:45;10.95;;;4.80;;
74900;SDS011;63461;51.416;6.758;2023-06-14T00:31:11;9.80;;;4.97;;
74900;SDS011;63461;51.416;6.758;2023-06-14T00:33:36;9.73;;;4.95;;
74900;SDS011;63461;51.416;6.758;2023-06-14T00:36:04;9.00;;;4.72;;
74900;SDS011;63461;51.416;6.758;2023-06-14T00:38:30;12.45;;;5.18;;
74900;SDS011;63461;51.416;6.758;2023-06-14T00:40:55;8.70;;;4.95;;
74900;SDS011;63461;51.416;6.758;2023-06-14T00:43:21;9.80;;;4.90;;
74900;SDS011;63461;51.416;6.758;2023-06-14T00:45:47;10.45;;;5.28;;
74900;SDS011;63461;51.416;6.758;2023-06-14T00:48:14;8.60;;;4.88;;
74900;SDS011;63461;51.416;6.758;2023-06-14T00:50:42;10.15;;;5.15;;
74900;SDS011;63461;51.416;6.758;2023-06-14T00:53:11;10.30;;;5.22;;
74900;SDS011;63461;51.416;6.758;2023-06-14T00:55:38;11.40;;;5.18;;
74900;SDS011;63461;51.416;6.758;2023-06-14T00:58:03;10.77;;;4.80;;
74900;SDS011;63461;51.416;6.758;2023-06-14T01:00:29;8.90;;;5.47;;
74900;SDS011;63461;51.416;6.758;2023-06-14T01:02:55;11.60;;;5.18;;
74900;SDS011;63461;51.416;6.758;2023-06-14T01:05:22;10.48;;;4.82;;
74900;SDS011;63461;51.416;6.758;2023-06-14T01:10:41;9.32;;;4.78;;
74900;SDS011;63461;51.416;6.758;2023-06-14T01:13:33;9.93;;;4.57;;
74900;SDS011;63461;51.416;6.758;2023-06-14T01:16:01;10.10;;;4.78;;
74900;SDS011;63461;51.416;6.758;2023-06-14T01:18:29;9.95;;;4.55;;
74900;SDS011;63461;51.416;6.758;2023-06-14T01:20:57;7.38;;;4.30;;
74900;SDS011;63461;51.416;6.758;2023-06-14T01:23:24;7.40;;;4.70;;
74900;SDS011;63461;51.416;6.758;2023-06-14T01:25:51;10.25;;;4.30;;
74900;SDS011;63461;51.416;6.758;2023-06-14T01:28:20;12.13;;;4.85;;
74900;SDS011;63461;51.416;6.758;2023-06-14T01:30:51;8.93;;;4.00;;
74900;SDS011;63461;51.416;6.758;2023-06-14T01:33:23;10.43;;;4.57;;
74900;SDS011;63461;51.416;6.758;2023-06-14T01:35:52;6.68;;;4.55;;
74900;SDS011;63461;51.416;6.758;2023-06-14T01:38:21;7.50;;;4.05;;
74900;SDS011;63461;51.416;6.758;2023-06-14T01:40:49;7.82;;;4.13;;
74900;SDS011;63461;51.416;6.758;2023-06-14T01:43:16;7.90;;;4.38;;
74900;SDS011;63461;51.416;6.758;2023-06-14T01:45:44;8.70;;;4.65;;
74900;SDS011;63461;51.416;6.758;2023-06-14T01:48:12;7.00;;;4.18;;
74900;SDS011;63461;51.416;6.758;2023-06-14T01:50:39;10.75;;;4.95;;
74900;SDS011;63461;51.416;6.758;2023-06-14T01:53:08;11.13;;;4.25;;
74900;SDS011;63461;51.416;6.758;2023-06-14T01:55:36;7.90;;;4.28;;
74900;SDS011;63461;51.416;6.758;2023-06-14T01:58:10;8.32;;;4.47;;
74900;SDS011;63461;51.416;6.758;2023-06-14T02:00:36;6.65;;;4.13;;
74900;SDS011;63461;51.416;6.758;2023-06-14T02:03:01;8.57;;;4.28;;
74900;SDS011;63461;51.416;6.758;2023-06-14T02:05:29;8.90;;;4.50;;
74900;SDS011;63461;51.416;6.758;2023-06-14T02:07:55;11.05;;;4.28;;
74900;SDS011;63461;51.416;6.758;2023-06-14T02:10:21;8.20;;;4.38;;
74900;SDS011;63461;51.416;6.758;2023-06-14T02:12:48;7.15;;;4.18;;
74900;SDS011;63461;51.416;6.758;2023-06-14T02:15:13;8.98;;;4.60;;
74900;SDS011;63461;51.416;6.758;2023-06-14T02:17:43;5.95;;;4.07;;
74900;SDS011;63461;51.416;6.758;2023-06-14T02:20:10;8.32;;;4.28;;
74900;SDS011;63461;51.416;6.758;2023-06-14T02:22:36;14.05;;;4.25;;
74900;SDS011;63461;51.416;6.758;2023-06-14T02:25:02;10.45;;;4.22;;
74900;SDS011;63461;51.416;6.758;2023-06-14T02:27:28;8.15;;;3.78;;
74900;SDS011;63461;51.416;6.758;2023-06-14T02:29:53;7.50;;;4.28;;
74900;SDS011;63461;51.416;6.758;2023-06-14T02:32:19;9.38;;;3.95;;
74900;SDS011;63461;51.416;6.758;2023-06-14T02:34:45;11.18;;;4.28;;
74900;SDS011;63461;51.416;6.758;2023-06-14T02:37:15;10.75;;;4.45;;
74900;SDS011;63461;51.416;6.758;2023-06-14T02:39:42;11.07;;;4.07;;
74900;SDS011;63461;51.416;6.758;2023-06-14T02:42:07;7.85;;;4.20;;
74900;SDS011;63461;51.416;6.758;2023-06-14T02:44:33;10.60;;;4.38;;
74900;SDS011;63461;51.416;6.758;2023-06-14T02:46:59;8.45;;;4.45;;
74900;SDS011;63461;51.416;6.758;2023-06-14T02:49:26;10.82;;;4.05;;
74900;SDS011;63461;51.416;6.758;2023-06-14T02:51:51;8.75;;;4.55;;
74900;SDS011;63461;51.416;6.758;2023-06-14T02:54:17;8.68;;;4.18;;
74900;SDS011;63461;51.416;6.758;2023-06-14T02:56:43;10.75;;;4.15;;
74900;SDS011;63461;51.416;6.758;2023-06-14T02:59:09;7.07;;;3.95;;
74900;SDS011;63461;51.416;6.758;2023-06-14T03:01:36;10.10;;;4.43;;
74900;SDS011;63461;51.416;6.758;2023-06-14T03:04:07;8.77;;;4.30;;
74900;SDS011;63461;51.416;6.758;2023-06-14T03:06:36;12.57;;;4.35;;
74900;SDS011;63461;51.416;6.758;2023-06-14T03:09:03;12.50;;;4.20;;
74900;SDS011;63461;51.416;6.758;2023-06-14T03:11:35;6.93;;;3.83;;
74900;SDS011;63461;51.416;6.758;2023-06-14T03:14:01;12.85;;;4.30;;
74900;SDS011;63461;51.416;6.758;2023-06-14T03:16:29;10.57;;;4.78;;
74900;SDS011;63461;51.416;6.758;2023-06-14T03:18:57;8.85;;;4.10;;
74900;SDS011;63461;51.416;6.758;2023-06-14T03:21:25;5.90;;;3.85;;
74900;SDS011;63461;51.416;6.758;2023-06-14T03:23:53;9.30;;;3.92;;
74900;SDS011;63461;51.416;6.758;2023-06-14T03:26:19;9.20;;;4.28;;
74900;SDS011;63461;51.416;6.758;2023-06-14T03:28:49;10.85;;;4.18;;
74900;SDS011;63461;51.416;6.758;2023-06-14T03:31:15;12.63;;;4.00;;
74900;SDS011;63461;51.416;6.758;2023-06-14T03:33:42;8.60;;;4.10;;
74900;SDS011;63461;51.416;6.758;2023-06-14T03:36:08;7.05;;;3.95;;
74900;SDS011;63461;51.416;6.758;2023-06-14T03:38:34;6.13;;;3.55;;
74900;SDS011;63461;51.416;6.758;2023-06-14T03:41:01;9.50;;;4.13;;
74900;SDS011;63461;51.416;6.758;2023-06-14T03:43:27;8.95;;;4.13;;
74900;SDS011;63461;51.416;6.758;2023-06-14T03:45:55;9.18;;;4.30;;
74900;SDS011;63461;51.416;6.758;2023-06-14T03:48:22;10.70;;;4.20;;
74900;SDS011;63461;51.416;6.758;2023-06-14T03:50:48;11.50;;;4.30;;
74900;SDS011;63461;51.416;6.758;2023-06-14T03:53:14;9.27;;;4.35;;
74900;SDS011;63461;51.416;6.758;2023-06-14T03:55:43;6.65;;;3.67;;
74900;SDS011;63461;51.416;6.758;2023-06-14T03:58:11;9.85;;;4.40;;
74900;SDS011;63461;51.416;6.758;2023-06-14T04:00:38;6.13;;;3.67;;
74900;SDS011;63461;51.416;6.758;2023-06-14T04:03:05;10.05;;;4.10;;
74900;SDS011;63461;51.416;6.758;2023-06-14T04:05:31;7.43;;;3.90;;
74900;SDS011;63461;51.416;6.758;2023-06-14T04:07:57;10.57;;;4.22;;
74900;SDS011;63461;51.416;6.758;2023-06-14T04:10:24;9.43;;;4.10;;
74900;SDS011;63461;51.416;6.758;2023-06-14T04:12:49;8.27;;;4.25;;
74900;SDS011;63461;51.416;6.758;2023-06-14T04:15:17;10.13;;;3.55;;
74900;SDS011;63461;51.416;6.758;2023-06-14T04:17:43;9.18;;;4.20;;
74900;SDS011;63461;51.416;6.758;2023-06-14T04:20:09;10.02;;;3.75;;
74900;SDS011;63461;51.416;6.758;2023-06-14T04:22:36;10.10;;;3.20;;
74900;SDS011;63461;51.416;6.758;2023-06-14T04:25:04;8.02;;;4.00;;
74900;SDS011;63461;51.416;6.758;2023-06-14T04:27:32;5.95;;;3.58;;
74900;SDS011;63461;51.416;6.758;2023-06-14T04:30:02;8.13;;;3.35;;
74900;SDS011;63461;51.416;6.758;2023-06-14T04:32:34;10.23;;;3.60;;
74900;SDS011;63461;51.416;6.758;2023-06-14T04:35:05;6.88;;;3.15;;
74900;SDS011;63461;51.416;6.758;2023-06-14T04:37:32;7.20;;;3.70;;
74900;SDS011;63461;51.416;6.758;2023-06-14T04:39:59;10.45;;;3.70;;
74900;SDS011;63461;51.416;6.758;2023-06-14T04:42:25;8.50;;;3.42;;
74900;SDS011;63461;51.416;6.758;2023-06-14T04:44:57;6.70;;;3.53;;
74900;SDS011;63461;51.416;6.758;2023-06-14T04:47:24;5.90;;;3.80;;
74900;SDS011;63461;51.416;6.758;2023-06-14T04:49:56;11.20;;;3.60;;
74900;SDS011;63461;51.416;6.758;2023-06-14T04:52:23;9.68;;;3.63;;
74900;SDS011;63461;51.416;6.758;2023-06-14T04:54:52;7.75;;;3.35;;
74900;SDS011;63461;51.416;6.758;2023-06-14T04:57:19;14.60;;;3.28;;
74900;SDS011;63461;51.416;6.758;2023-06-14T04:59:48;12.40;;;3.90;;
74900;SDS011;63461;51.416;6.758;2023-06-14T05:02:20;8.13;;;3.47;;
74900;SDS011;63461;51.416;6.758;2023-06-14T05:04:49;10.30;;;4.00;;
74900;SDS011;63461;51.416;6.758;2023-06-14T05:07:16;8.88;;;3.65;;
74900;SDS011;63461;51.416;6.758;2023-06-14T05:09:42;13.50;;;3.53;;
74900;SDS011;63461;51.416;6.758;2023-06-14T05:12:08;7.75;;;4.15;;
74900;SDS011;63461;51.416;6.758;2023-06-14T05:14:35;6.97;;;3.30;;
74900;SDS011;63461;51.416;6.758;2023-06-14T05:17:01;12.10;;;3.00;;
74900;SDS011;63461;51.416;6.758;2023-06-14T05:19:27;8.02;;;3.53;;
74900;SDS011;63461;51.416;6.758;2023-06-14T05:21:53;6.68;;;3.33;;
74900;SDS011;63461;51.416;6.758;2023-06-14T05:24:19;5.97;;;2.92;;
74900;SDS011;63461;51.416;6.758;2023-06-14T05:26:46;9.23;;;3.40;;
74900;SDS011;63461;51.416;6.758;2023-06-14T05:29:12;8.68;;;3.20;;
74900;SDS011;63461;51.416;6.758;2023-06-14T05:31:37;11.13;;;3.33;;
74900;SDS011;63461;51.416;6.758;2023-06-14T05:34:03;9.18;;;3.50;;
74900;SDS011;63461;51.416;6.758;2023-06-14T05:36:29;7.60;;;3.72;;
74900;SDS011;63461;51.416;6.758;2023-06-14T05:38:55;9.48;;;3.30;;
74900;SDS011;63461;51.416;6.758;2023-06-14T05:41:27;8.93;;;4.00;;
74900;SDS011;63461;51.416;6.758;2023-06-14T05:43:54;9.07;;;3.25;;
74900;SDS011;63461;51.416;6.758;2023-06-14T05:46:20;6.13;;;3.10;;
74900;SDS011;63461;51.416;6.758;2023-06-14T05:48:50;4.90;;;2.92;;
74900;SDS011;63461;51.416;6.758;2023-06-14T05:51:16;9.93;;;3.03;;
74900;SDS011;63461;51.416;6.758;2023-06-14T05:53:46;9.57;;;3.20;;
74900;SDS011;63461;51.416;6.758;2023-06-14T05:56:12;12.18;;;3.20;;
74900;SDS011;63461;51.416;6.758;2023-06-14T05:58:38;10.43;;;2.83;;
74900;SDS011;63461;51.416;6.758;2023-06-14T06:01:04;6.32;;;3.10;;
74900;SDS011;63461;51.416;6.758;2023-06-14T06:03:31;9.18;;;3.42;;
74900;SDS011;63461;51.416;6.758;2023-06-14T06:05:57;5.60;;;3.00;;
74900;SDS011;63461;51.416;6.758;2023-06-14T06:08:49;8.23;;;3.28;;
74900;SDS011;63461;51.416;6.758;2023-06-14T06:11:15;11.20;;;3.33;;
74900;SDS011;63461;51.416;6.758;2023-06-14T06:13:40;6.30;;;3.38;;
74900;SDS011;63461;51.416;6.758;2023-06-14T06:16:06;7.90;;;3.60;;
74900;SDS011;63461;51.416;6.758;2023-06-14T06:18:32;8.73;;;3.70;;
74900;SDS011;63461;51.416;6.758;2023-06-14T06:20:58;8.60;;;3.22;;
74900;SDS011;63461;51.416;6.758;2023-06-14T06:23:24;9.50;;;2.97;;
74900;SDS011;63461;51.416;6.758;2023-06-14T06:25:51;8.00;;;3.25;;
74900;SDS011;63461;51.416;6.758;2023-06-14T06:28:17;9.15;;;2.97;;
74900;SDS011;63461;51.416;6.758;2023-06-14T06:30:42;10.02;;;2.80;;
74900;SDS011;63461;51.416;6.758;2023-06-14T06:33:08;9.15;;;3.50;;
74900;SDS011;63461;51.416;6.758;2023-06-14T06:35:34;9.25;;;3.20;;
74900;SDS011;63461;51.416;6.758;2023-06-14T06:38:00;9.65;;;3.00;;
74900;SDS011;63461;51.416;6.758;2023-06-14T06:40:26;6.40;;;2.80;;
74900;SDS011;63461;51.416;6.758;2023-06-14T06:42:52;8.77;;;3.13;;
74900;SDS011;63461;51.416;6.758;2023-06-14T06:45:19;8.05;;;3.08;;
74900;SDS011;63461;51.416;6.758;2023-06-14T06:47:45;11.13;;;3.33;;
74900;SDS011;63461;51.416;6.758;2023-06-14T06:50:10;8.88;;;2.67;;
74900;SDS011;63461;51.416;6.758;2023-06-14T06:52:36;8.60;;;3.22;;
74900;SDS011;63461;51.416;6.758;2023-06-14T06:55:02;5.85;;;3.05;;
74900;SDS011;63461;51.416;6.758;2023-06-14T06:57:28;7.25;;;2.63;;
74900;SDS011;63461;51.416;6.758;2023-06-14T06:59:54;5.25;;;2.75;;
74900;SDS011;63461;51.416;6.758;2023-06-14T07:02:20;4.95;;;2.40;;
74900;SDS011;63461;51.416;6.758;2023-06-14T07:04:46;5.88;;;1.92;;
74900;SDS011;63461;51.416;6.758;2023-06-14T07:07:11;7.78;;;2.25;;
74900;SDS011;63461;51.416;6.758;2023-06-14T07:09:37;5.63;;;2.10;;
74900;SDS011;63461;51.416;6.758;2023-06-14T07:12:03;3.67;;;1.70;;
74900;SDS011;63461;51.416;6.758;2023-06-14T07:14:29;7.18;;;2.25;;
74900;SDS011;63461;51.416;6.758;2023-06-14T07:16:55;6.30;;;2.03;;
74900;SDS011;63461;51.416;6.758;2023-06-14T07:19:21;2.58;;;1.63;;
74900;SDS011;63461;51.416;6.758;2023-06-14T07:21:47;3.00;;;1.70;;
74900;SDS011;63461;51.416;6.758;2023-06-14T07:24:13;4.85;;;1.80;;
74900;SDS011;63461;51.416;6.758;2023-06-14T07:26:39;5.60;;;1.70;;
74900;SDS011;63461;51.416;6.758;2023-06-14T07:29:05;5.43;;;1.98;;
74900;SDS011;63461;51.416;6.758;2023-06-14T07:31:30;3.97;;;1.85;;
74900;SDS011;63461;51.416;6.758;2023-06-14T07:33:56;4.35;;;1.88;;
74900;SDS011;63461;51.416;6.758;2023-06-14T07:36:22;6.15;;;1.60;;
74900;SDS011;63461;51.416;6.758;2023-06-14T07:38:48;5.72;;;1.60;;
74900;SDS011;63461;51.416;6.758;2023-06-14T07:41:14;8.15;;;2.03;;
74900;SDS011;63461;51.416;6.758;2023-06-14T07:43:39;5.75;;;2.00;;
74900;SDS011;63461;51.416;6.758;2023-06-14T07:46:05;5.85;;;1.90;;
74900;SDS011;63461;51.416;6.758;2023-06-14T07:48:31;4.38;;;1.75;;
74900;SDS011;63461;51.416;6.758;2023-06-14T07:50:57;6.97;;;2.22;;
74900;SDS011;63461;51.416;6.758;2023-06-14T07:53:23;5.93;;;1.90;;
74900;SDS011;63461;51.416;6.758;2023-06-14T07:55:48;5.53;;;2.00;;
74900;SDS011;63461;51.416;6.758;2023-06-14T07:58:15;4.82;;;2.00;;
74900;SDS011;63461;51.416;6.758;2023-06-14T08:00:41;5.43;;;1.77;;
74900;SDS011;63461;51.416;6.758;2023-06-14T08:03:07;5.15;;;1.33;;
74900;SDS011;63461;51.416;6.758;2023-06-14T08:05:32;3.47;;;1.60;;
74900;SDS011;63461;51.416;6.758;2023-06-14T08:07:58;7.90;;;1.80;;
74900;SDS011;63461;51.416;6.758;2023-06-14T08:10:25;2.58;;;1.55;;
74900;SDS011;63461;51.416;6.758;2023-06-14T08:12:50;5.68;;;1.77;;
74900;SDS011;63461;51.416;6.758;2023-06-14T08:15:17;6.93;;;2.00;;
74900;SDS011;63461;51.416;6.758;2023-06-14T08:17:43;5.75;;;1.70;;
74900;SDS011;63461;51.416;6.758;2023-06-14T08:20:09;3.53;;;1.55;;
74900;SDS011;63461;51.416;6.758;2023-06-14T08:22:36;2.83;;;1.52;;
74900;SDS011;63461;51.416;6.758;2023-06-14T08:25:02;6.63;;;2.03;;
74900;SDS011;63461;51.416;6.758;2023-06-14T08:27:29;8.23;;;2.40;;
74900;SDS011;63461;51.416;6.758;2023-06-14T08:29:55;3.22;;;1.90;;
74900;SDS011;63461;51.416;6.758;2023-06-14T08:32:21;5.05;;;1.80;;
74900;SDS011;63461;51.416;6.758;2023-06-14T08:34:47;9.52;;;2.20;;
74900;SDS011;63461;51.416;6.758;2023-06-14T08:37:13;4.57;;;1.75;;
74900;SDS011;63461;51.416;6.758;2023-06-14T08:39:39;5.40;;;1.83;;
74900;SDS011;63461;51.416;6.758;2023-06-14T08:42:05;4.90;;;1.80;;
74900;SDS011;63461;51.416;6.758;2023-06-14T08:44:34;6.30;;;1.98;;
74900;SDS011;63461;51.416;6.758;2023-06-14T08:47:00;3.75;;;1.60;;
74900;SDS011;63461;51.416;6.758;2023-06-14T08:49:26;3.97;;;1.90;;
74900;SDS011;63461;51.416;6.758;2023-06-14T08:51:53;5.07;;;1.70;;
74900;SDS011;63461;51.416;6.758;2023-06-14T08:54:23;2.63;;;1.48;;
74900;SDS011;63461;51.416;6.758;2023-06-14T08:56:52;6.63;;;1.90;;
74900;SDS011;63461;51.416;6.758;2023-06-14T08:59:31;1.85;;;1.42;;
74900;SDS011;63461;51.416;6.758;2023-06-14T09:02:04;3.75;;;1.90;;
74900;SDS011;63461;51.416;6.758;2023-06-14T09:04:31;10.07;;;1.73;;
74900;SDS011;63461;51.416;6.758;2023-06-14T09:06:58;7.38;;;2.00;;
74900;SDS011;63461;51.416;6.758;2023-06-14T09:09:24;8.00;;;2.20;;
74900;SDS011;63461;51.416;6.758;2023-06-14T09:11:51;3.70;;;1.85;;
74900;SDS011;63461;51.416;6.758;2023-06-14T09:14:21;5.35;;;2.03;;
74900;SDS011;63461;51.416;6.758;2023-06-14T09:16:51;4.80;;;1.90;;
74900;SDS011;63461;51.416;6.758;2023-06-14T09:19:21;5.32;;;1.83;;
74900;SDS011;63461;51.416;6.758;2023-06-14T09:21:48;2.80;;;1.67;;
74900;SDS011;63461;51.416;6.758;2023-06-14T09:24:15;4.43;;;1.90;;
74900;SDS011;63461;51.416;6.758;2023-06-14T09:26:40;7.22;;;2.20;;
74900;SDS011;63461;51.416;6.758;2023-06-14T09:29:06;6.68;;;2.28;;
74900;SDS011;63461;51.416;6.758;2023-06-14T09:31:34;5.72;;;1.80;;
74900;SDS011;63461;51.416;6.758;2023-06-14T09:34:02;3.50;;;1.85;;
74900;SDS011;63461;51.416;6.758;2023-06-14T09:36:30;3.53;;;1.58;;
74900;SDS011;63461;51.416;6.758;2023-06-14T09:38:57;7.15;;;1.67;;
74900;SDS011;63461;51.416;6.758;2023-06-14T09:43:59;4.45;;;1.90;;
74900;SDS011;63461;51.416;6.758;2023-06-14T09:46:29;3.33;;;1.50;;
74900;SDS011;63461;51.416;6.758;2023-06-14T09:48:55;3.42;;;1.35;;
74900;SDS011;63461;51.416;6.758;2023-06-14T09:51:22;5.78;;;1.60;;
74900;SDS011;63461;51.416;6.758;2023-06-14T09:53:48;2.53;;;1.40;;
74900;SDS011;63461;51.416;6.758;2023-06-14T09:56:17;3.35;;;1.40;;
74900;SDS011;63461;51.416;6.758;2023-06-14T09:58:51;5.20;;;1.52;;
74900;SDS011;63461;51.416;6.758;2023-06-14T10:01:20;3.55;;;1.60;;
74900;SDS011;63461;51.416;6.758;2023-06-14T10:03:49;3.88;;;1.30;;
74900;SDS011;63461;51.416;6.758;2023-06-14T10:06:20;2.67;;;1.42;;
74900;SDS011;63461;51.416;6.758;2023-06-14T10:08:50;2.63;;;1.27;;
74900;SDS011;63461;51.416;6.758;2023-06-14T10:11:19;2.25;;;1.20;;
74900;SDS011;63461;51.416;6.758;2023-06-14T10:13:45;2.15;;;1.30;;
74900;SDS011;63461;51.416;6.758;2023-06-14T10:18:51;4.32;;;1.45;;
74900;SDS011;63461;51.416;6.758;2023-06-14T10:22:12;4.63;;;1.25;;
74900;SDS011;63461;51.416;6.758;2023-06-14T10:24:15;6.38;;;1.25;;
74900;SDS011;63461;51.416;6.758;2023-06-14T10:26:53;2.38;;;1.50;;
74900;SDS011;63461;51.416;6.758;2023-06-14T10:29:22;3.42;;;1.40;;
74900;SDS011;63461;51.416;6.758;2023-06-14T10:31:49;1.80;;;1.40;;
74900;SDS011;63461;51.416;6.758;2023-06-14T10:34:25;6.70;;;1.33;;
74900;SDS011;63461;51.416;6.758;2023-06-14T10:39:41;3.83;;;1.30;;
74900;SDS011;63461;51.416;6.758;2023-06-14T10:42:09;5.28;;;1.67;;
74900;SDS011;63461;51.416;6.758;2023-06-14T10:49:58;3.55;;;1.27;;
74900;SDS011;63461;51.416;6.758;2023-06-14T10:52:28;2.97;;;1.17;;
74900;SDS011;63461;51.416;6.758;2023-06-14T11:00:08;3.92;;;0.98;;
74900;SDS011;63461;51.416;6.758;2023-06-14T11:05:25;3.90;;;1.15;;
74900;SDS011;63461;51.416;6.758;2023-06-14T11:10:43;3.88;;;1.35;;
74900;SDS011;63461;51.416;6.758;2023-06-14T11:13:12;5.63;;;1.42;;
74900;SDS011;63461;51.416;6.758;2023-06-14T11:15:45;1.98;;;1.30;;
74900;SDS011;63461;51.416;6.758;2023-06-14T11:18:13;2.65;;;0.90;;
74900;SDS011;63461;51.416;6.758;2023-06-14T11:20:39;3.28;;;1.13;;
74900;SDS011;63461;51.416;6.758;2023-06-14T11:23:05;6.32;;;1.17;;
74900;SDS011;63461;51.416;6.758;2023-06-14T11:25:31;2.13;;;1.25;;
74900;SDS011;63461;51.416;6.758;2023-06-14T11:27:57;2.33;;;1.15;;
74900;SDS011;63461;51.416;6.758;2023-06-14T11:30:26;2.95;;;1.20;;
74900;SDS011;63461;51.416;6.758;2023-06-14T11:32:52;20.55;;;2.92;;
74900;SDS011;63461;51.416;6.758;2023-06-14T11:35:22;5.90;;;1.38;;
74900;SDS011;63461;51.416;6.758;2023-06-14T11:37:52;17.00;;;3.00;;
74900;SDS011;63461;51.416;6.758;2023-06-14T11:40:22;6.97;;;1.80;;
74900;SDS011;63461;51.416;6.758;2023-06-14T11:42:49;5.43;;;1.38;;
74900;SDS011;63461;51.416;6.758;2023-06-14T11:45:15;3.90;;;1.40;;
74900;SDS011;63461;51.416;6.758;2023-06-14T11:47:41;6.13;;;1.40;;
74900;SDS011;63461;51.416;6.758;2023-06-14T11:50:07;3.38;;;1.20;;
74900;SDS011;63461;51.416;6.758;2023-06-14T11:52:34;3.20;;;1.27;;
74900;SDS011;63461;51.416;6.758;2023-06-14T11:55:02;2.80;;;1.33;;
74900;SDS011;63461;51.416;6.758;2023-06-14T11:57:30;3.08;;;1.60;;
74900;SDS011;63461;51.416;6.758;2023-06-14T12:00:02;3.42;;;1.30;;
74900;SDS011;63461;51.416;6.758;2023-06-14T12:02:37;4.25;;;1.30;;
74900;SDS011;63461;51.416;6.758;2023-06-14T12:05:06;6.78;;;1.42;;
74900;SDS011;63461;51.416;6.758;2023-06-14T12:07:36;2.13;;;1.20;;
74900;SDS011;63461;51.416;6.758;2023-06-14T12:12:34;2.10;;;1.40;;
74900;SDS011;63461;51.416;6.758;2023-06-14T12:15:03;1.48;;;1.15;;
74900;SDS011;63461;51.416;6.758;2023-06-14T12:17:33;5.60;;;1.48;;
74900;SDS011;63461;51.416;6.758;2023-06-14T12:20:10;2.28;;;1.60;;
74900;SDS011;63461;51.416;6.758;2023-06-14T12:22:39;5.38;;;2.28;;
74900;SDS011;63461;51.416;6.758;2023-06-14T12:25:22;4.90;;;1.40;;
74900;SDS011;63461;51.416;6.758;2023-06-14T12:27:59;2.60;;;1.40;;
74900;SDS011;63461;51.416;6.758;2023-06-14T12:30:32;5.25;;;1.73;;
74900;SDS011;63461;51.416;6.758;2023-06-14T12:32:58;6.32;;;2.50;;
74900;SDS011;63461;51.416;6.758;2023-06-14T12:35:24;7.53;;;3.97;;
74900;SDS011;63461;51.416;6.758;2023-06-14T12:37:50;4.07;;;2.38;;
74900;SDS011;63461;51.416;6.758;2023-06-14T12:40:15;2.47;;;1.50;;
74900;SDS011;63461;51.416;6.758;2023-06-14T12:42:41;4.78;;;1.60;;
74900;SDS011;63461;51.416;6.758;2023-06-14T12:45:08;1.95;;;1.30;;
74900;SDS011;63461;51.416;6.758;2023-06-14T12:47:34;5.50;;;1.77;;
74900;SDS011;63461;51.416;6.758;2023-06-14T12:50:01;3.20;;;1.70;;
74900;SDS011;63461;51.416;6.758;2023-06-14T12:52:27;4.70;;;1.75;;
74900;SDS011;63461;51.416;6.758;2023-06-14T12:54:52;4.75;;;1.70;;
74900;SDS011;63461;51.416;6.758;2023-06-14T12:57:18;5.70;;;1.80;;
74900;SDS011;63461;51.416;6.758;2023-06-14T12:59:44;3.03;;;1.40;;
74900;SDS011;63461;51.416;6.758;2023-06-14T13:02:11;3.95;;;1.60;;
74900;SDS011;63461;51.416;6.758;2023-06-14T13:04:37;11.57;;;1.77;;
74900;SDS011;63461;51.416;6.758;2023-06-14T13:07:03;4.85;;;2.30;;
74900;SDS011;63461;51.416;6.758;2023-06-14T13:09:29;4.65;;;1.80;;
74900;SDS011;63461;51.416;6.758;2023-06-14T13:11:55;5.18;;;1.95;;
74900;SDS011;63461;51.416;6.758;2023-06-14T13:14:21;4.80;;;2.30;;
74900;SDS011;63461;51.416;6.758;2023-06-14T13:16:46;3.85;;;1.67;;
74900;SDS011;63461;51.416;6.758;2023-06-14T13:19:13;2.30;;;1.90;;
74900;SDS011;63461;51.416;6.758;2023-06-14T13:21:38;3.67;;;1.77;;
74900;SDS011;63461;51.416;6.758;2023-06-14T13:24:04;4.75;;;1.95;;
74900;SDS011;63461;51.416;6.758;2023-06-14T13:26:31;2.88;;;1.77;;
74900;SDS011;63461;51.416;6.758;2023-06-14T13:28:58;4.93;;;1.80;;
74900;SDS011;63461;51.416;6.758;2023-06-14T13:31:24;2.80;;;1.75;;
74900;SDS011;63461;51.416;6.758;2023-06-14T13:33:50;3.33;;;1.58;;
74900;SDS011;63461;51.416;6.758;2023-06-14T13:36:16;5.45;;;1.90;;
74900;SDS011;63461;51.416;6.758;2023-06-14T13:38:42;4.07;;;1.80;;
74900;SDS011;63461;51.416;6.758;2023-06-14T13:41:07;9.07;;;1.92;;
74900;SDS011;63461;51.416;6.758;2023-06-14T13:43:33;3.47;;;1.88;;
74900;SDS011;63461;51.416;6.758;2023-06-14T13:45:59;3.72;;;1.83;;
74900;SDS011;63461;51.416;6.758;2023-06-14T13:48:25;3.58;;;1.70;;
74900;SDS011;63461;51.416;6.758;2023-06-14T13:50:51;4.70;;;1.52;;
74900;SDS011;63461;51.416;6.758;2023-06-14T13:53:17;4.50;;;2.15;;
74900;SDS011;63461;51.416;6.758;2023-06-14T13:55:43;7.25;;;2.00;;
74900;SDS011;63461;51.416;6.758;2023-06-14T13:58:09;2.85;;;1.85;;
74900;SDS011;63461;51.416;6.758;2023-06-14T14:00:35;7.00;;;1.80;;
74900;SDS011;63461;51.416;6.758;2023-06-14T14:03:05;4.40;;;1.60;;
74900;SDS011;63461;51.416;6.758;2023-06-14T14:05:32;5.18;;;1.83;;
74900;SDS011;63461;51.416;6.758;2023-06-14T14:07:58;6.65;;;1.92;;
74900;SDS011;63461;51.416;6.758;2023-06-14T14:10:24;5.32;;;2.00;;
74900;SDS011;63461;51.416;6.758;2023-06-14T14:12:50;8.75;;;2.00;;
74900;SDS011;63461;51.416;6.758;2023-06-14T14:15:18;3.05;;;1.77;;
74900;SDS011;63461;51.416;6.758;2023-06-14T14:17:43;3.97;;;2.15;;
74900;SDS011;63461;51.416;6.758;2023-06-14T14:20:09;3.40;;;1.80;;
74900;SDS011;63461;51.416;6.758;2023-06-14T14:22:37;3.88;;;1.80;;
74900;SDS011;63461;51.416;6.758;2023-06-14T14:25:03;3.65;;;1.85;;
74900;SDS011;63461;51.416;6.758;2023-06-14T14:27:29;4.35;;;2.05;;
74900;SDS011;63461;51.416;6.758;2023-06-14T14:29:55;6.75;;;2.25;;
74900;SDS011;63461;51.416;6.758;2023-06-14T14:32:21;4.85;;;1.90;;
74900;SDS011;63461;51.416;6.758;2023-06-14T14:34:47;4.03;;;1.92;;
74900;SDS011;63461;51.416;6.758;2023-06-14T14:37:13;3.92;;;1.95;;
74900;SDS011;63461;51.416;6.758;2023-06-14T14:39:40;4.75;;;1.58;;
74900;SDS011;63461;51.416;6.758;2023-06-14T14:42:06;3.97;;;2.17;;
74900;SDS011;63461;51.416;6.758;2023-06-14T14:44:33;3.00;;;1.80;;
74900;SDS011;63461;51.416;6.758;2023-06-14T14:46:58;3.97;;;1.85;;
74900;SDS011;63461;51.416;6.758;2023-06-14T14:49:24;6.40;;;1.83;;
74900;SDS011;63461;51.416;6.758;2023-06-14T14:51:50;5.97;;;2.20;;
74900;SDS011;63461;51.416;6.758;2023-06-14T14:54:16;2.42;;;1.60;;
74900;SDS011;63461;51.416;6.758;2023-06-14T14:56:41;4.50;;;2.00;;
74900;SDS011;63461;51.416;6.758;2023-06-14T14:59:07;2.42;;;2.00;;
74900;SDS011;63461;51.416;6.758;2023-06-14T15:01:33;4.88;;;2.17;;
74900;SDS011;63461;51.416;6.758;2023-06-14T15:03:59;7.68;;;1.67;;
74900;SDS011;63461;51.416;6.758;2023-06-14T15:06:24;5.53;;;2.03;;
74900;SDS011;63461;51.416;6.758;2023-06-14T15:08:50;3.10;;;2.30;;
74900;SDS011;63461;51.416;6.758;2023-06-14T15:11:17;4.07;;;1.90;;
74900;SDS011;63461;51.416;6.758;2023-06-14T15:13:42;6.25;;;2.17;;
74900;SDS011;63461;51.416;6.758;2023-06-14T15:16:08;4.85;;;1.92;;